createdAt,value
2023-02-19T00:02:05.880Z,29.27
2023-02-19T00:04:36.612Z,20.75
2023-02-19T00:07:07.373Z,23.73
2023-02-19T00:09:38.596Z,26.40
2023-02-19T00:12:09.294Z,25.13
2023-02-19T00:14:42.668Z,26.63
2023-02-19T00:17:13.353Z,27.50
2023-02-19T00:19:43.731Z,26.45
2023-02-19T00:22:14.696Z,23.15
2023-02-19T00:24:46.142Z,25.83
2023-02-19T00:27:18.073Z,29.83
2023-02-19T00:29:50.960Z,30.70
2023-02-19T00:32:21.970Z,30.08
2023-02-19T00:34:53.228Z,33.67
2023-02-19T00:37:23.691Z,28.55
2023-02-19T00:39:54.558Z,36.13
2023-02-19T00:42:28.973Z,33.55
2023-02-19T00:45:00.441Z,32.78
2023-02-19T00:47:31.362Z,42.70
2023-02-19T00:50:01.807Z,40.53
2023-02-19T00:52:32.630Z,41.17
2023-02-19T00:55:03.762Z,32.38
2023-02-19T00:57:34.784Z,31.75
2023-02-19T01:00:07.727Z,32.67
2023-02-19T01:02:38.794Z,35.45
2023-02-19T01:05:09.874Z,33.08
2023-02-19T01:07:43.693Z,31.85
2023-02-19T01:10:14.350Z,38.42
2023-02-19T01:12:45.987Z,36.58
2023-02-19T01:15:17.028Z,35.10
2023-02-19T01:17:48.602Z,38.80
2023-02-19T01:20:19.906Z,44.70
2023-02-19T01:22:50.521Z,37.20
2023-02-19T01:25:21.638Z,31.60
2023-02-19T01:27:52.567Z,28.02
2023-02-19T01:30:23.543Z,22.23
2023-02-19T01:32:54.292Z,23.88
2023-02-19T01:35:25.114Z,26.70
2023-02-19T01:37:55.811Z,25.52
2023-02-19T01:40:27.661Z,24.77
2023-02-19T01:42:58.845Z,33.08
2023-02-19T01:45:33.087Z,34.88
2023-02-19T01:48:11.759Z,41.10
2023-02-19T01:50:47.776Z,31.05
2023-02-19T01:53:21.091Z,27.45
2023-02-19T01:55:56.074Z,25.20
2023-02-19T01:58:38.106Z,22.45
2023-02-19T02:01:11.585Z,25.40
2023-02-19T02:03:44.208Z,26.80
2023-02-19T02:06:29.429Z,27.23
2023-02-19T02:09:19.459Z,35.38
2023-02-19T02:11:53.231Z,30.35
2023-02-19T02:14:27.706Z,33.28
2023-02-19T02:17:22.946Z,36.47
2023-02-19T02:20:10.969Z,35.42
2023-02-19T02:23:02.698Z,35.67
2023-02-19T02:25:52.897Z,35.08
2023-02-19T02:28:34.175Z,27.80
2023-02-19T02:31:09.352Z,31.40
2023-02-19T02:33:49.697Z,36.08
2023-02-19T02:36:31.950Z,36.33
2023-02-19T02:39:06.204Z,31.27
2023-02-19T02:42:10.560Z,36.85
2023-02-19T02:44:43.160Z,35.65
2023-02-19T02:47:34.625Z,38.83
2023-02-19T02:50:08.871Z,35.78
2023-02-19T02:52:59.699Z,39.20
2023-02-19T02:55:33.622Z,40.45
2023-02-19T02:58:05.170Z,42.75
2023-02-19T03:01:14.571Z,38.58
2023-02-19T03:03:47.421Z,42.38
2023-02-19T03:06:19.136Z,50.55
2023-02-19T03:09:06.940Z,46.38
2023-02-19T03:12:04.544Z,44.83
2023-02-19T03:15:06.892Z,34.70
2023-02-19T03:18:12.141Z,32.17
2023-02-19T03:20:47.096Z,31.98
2023-02-19T03:23:19.766Z,30.80
2023-02-19T03:26:05.811Z,28.92
2023-02-19T03:29:13.601Z,22.90
2023-02-19T03:31:47.034Z,16.38
2023-02-19T03:34:26.310Z,17.10
2023-02-19T03:37:08.127Z,18.13
2023-02-19T03:39:45.365Z,14.65
2023-02-19T03:42:25.018Z,12.30
2023-02-19T03:45:37.858Z,17.75
2023-02-19T03:48:39.303Z,15.77
2023-02-19T03:51:30.421Z,15.38
2023-02-19T03:54:30.138Z,14.52
2023-02-19T03:57:18.738Z,16.35
2023-02-19T04:00:20.346Z,15.45
2023-02-19T04:03:03.201Z,17.98
2023-02-19T04:05:36.714Z,14.07
2023-02-19T04:08:15.673Z,13.25
2023-02-19T04:10:52.316Z,15.88
2023-02-19T04:13:36.478Z,15.15
2023-02-19T04:16:14.768Z,15.60
2023-02-19T04:18:46.155Z,17.45
2023-02-19T04:21:18.160Z,18.05
2023-02-19T04:23:53.414Z,17.77
2023-02-19T04:26:24.752Z,18.83
2023-02-19T04:28:56.134Z,18.58
2023-02-19T04:31:29.409Z,21.48
2023-02-19T04:34:00.501Z,22.33
2023-02-19T04:36:35.501Z,20.88
2023-02-19T04:39:06.825Z,22.17
2023-02-19T04:41:37.406Z,21.42
2023-02-19T04:44:08.405Z,24.70
2023-02-19T04:46:38.710Z,22.50
2023-02-19T04:49:09.593Z,18.20
2023-02-19T04:51:40.741Z,19.95
2023-02-19T04:54:11.347Z,21.10
2023-02-19T04:56:42.330Z,23.63
2023-02-19T04:59:13.902Z,25.65
2023-02-19T05:01:53.551Z,27.88
2023-02-19T05:04:24.934Z,21.95
2023-02-19T05:06:55.823Z,24.58
2023-02-19T05:09:26.955Z,20.02
2023-02-19T05:11:57.929Z,20.13
2023-02-19T05:14:28.828Z,21.00
2023-02-19T05:16:59.654Z,23.05
2023-02-19T05:19:30.704Z,23.08
2023-02-19T05:22:01.908Z,19.85
2023-02-19T05:24:32.626Z,21.50
2023-02-19T05:27:03.259Z,18.38
2023-02-19T05:29:34.249Z,19.85
2023-02-19T05:32:05.415Z,22.70
2023-02-19T05:34:36.689Z,24.90
2023-02-19T05:37:07.486Z,24.38
2023-02-19T05:39:38.146Z,25.40
2023-02-19T05:42:09.342Z,23.05
2023-02-19T05:44:40.177Z,26.15
2023-02-19T05:47:11.262Z,25.73
2023-02-19T05:49:42.240Z,25.70
2023-02-19T05:52:13.207Z,26.85
2023-02-19T05:54:43.564Z,24.80
2023-02-19T05:57:14.248Z,30.25
2023-02-19T05:59:45.228Z,28.38
2023-02-19T06:02:16.136Z,28.20
2023-02-19T06:04:47.863Z,29.27
2023-02-19T06:07:18.692Z,27.58
2023-02-19T06:09:52.570Z,28.05
2023-02-19T06:12:23.538Z,29.80
2023-02-19T06:15:05.382Z,28.55
2023-02-19T06:17:36.712Z,29.90
2023-02-19T06:20:07.921Z,29.83
2023-02-19T06:22:38.688Z,33.53
2023-02-19T06:25:13.538Z,33.47
2023-02-19T06:27:43.953Z,33.08
2023-02-19T06:30:14.924Z,35.92
2023-02-19T06:32:46.012Z,35.38
2023-02-19T06:35:17.088Z,35.67
2023-02-19T06:37:54.372Z,29.17
2023-02-19T06:40:25.263Z,36.10
2023-02-19T06:42:56.581Z,32.75
2023-02-19T06:45:26.884Z,36.47
2023-02-19T06:47:58.097Z,37.20
2023-02-19T06:50:28.431Z,35.63
2023-02-19T06:52:59.108Z,38.22
2023-02-19T06:55:29.832Z,34.50
2023-02-19T06:58:00.605Z,35.67
2023-02-19T07:00:31.484Z,33.60
2023-02-19T07:03:04.479Z,33.72
2023-02-19T07:05:36.673Z,31.77
2023-02-19T07:08:07.949Z,29.88
2023-02-19T07:10:38.818Z,31.88
2023-02-19T07:13:09.922Z,32.47
2023-02-19T07:15:40.802Z,36.55
2023-02-19T07:18:11.441Z,31.60
2023-02-19T07:20:42.085Z,34.25
2023-02-19T07:23:23.673Z,29.63
2023-02-19T07:25:55.208Z,29.58
2023-02-19T07:28:26.780Z,25.50
2023-02-19T07:31:02.805Z,24.70
2023-02-19T07:33:33.593Z,29.90
2023-02-19T07:36:05.118Z,34.67
2023-02-19T07:38:35.776Z,26.65
2023-02-19T07:41:07.410Z,26.90
2023-02-19T07:43:39.362Z,36.80
2023-02-19T07:46:13.047Z,32.30
2023-02-19T07:48:45.435Z,33.10
2023-02-19T07:51:19.974Z,29.88
2023-02-19T07:53:51.908Z,30.52
2023-02-19T07:56:23.267Z,27.98
2023-02-19T07:58:53.924Z,29.00
2023-02-19T08:01:44.542Z,32.20
2023-02-19T08:04:16.777Z,31.15
2023-02-19T08:06:47.479Z,27.05
2023-02-19T08:09:21.056Z,26.85
2023-02-19T08:12:11.116Z,28.38
2023-02-19T08:14:42.145Z,32.08
2023-02-19T08:17:12.740Z,27.17
2023-02-19T08:19:44.081Z,26.85
2023-02-19T08:22:22.841Z,30.52
2023-02-19T08:24:53.757Z,28.85
2023-02-19T08:27:25.001Z,29.35
2023-02-19T08:29:56.200Z,25.20
2023-02-19T08:32:26.905Z,30.38
2023-02-19T08:34:57.865Z,29.95
2023-02-19T08:37:29.207Z,28.17
2023-02-19T08:39:59.742Z,26.35
2023-02-19T08:42:30.992Z,23.80
2023-02-19T08:45:01.677Z,24.63
2023-02-19T08:47:35.064Z,23.20
2023-02-19T08:50:07.781Z,21.77
2023-02-19T08:52:38.641Z,23.30
2023-02-19T08:55:10.085Z,27.58
2023-02-19T08:57:42.672Z,24.27
2023-02-19T09:00:17.242Z,32.05
2023-02-19T09:02:49.081Z,32.58
2023-02-19T09:05:20.027Z,28.40
2023-02-19T09:07:50.621Z,28.23
2023-02-19T09:10:21.505Z,27.42
2023-02-19T09:12:52.232Z,21.60
2023-02-19T09:15:23.297Z,19.50
2023-02-19T09:17:57.077Z,19.77
2023-02-19T09:20:27.542Z,19.35
2023-02-19T09:23:03.631Z,21.20
2023-02-19T09:25:34.940Z,20.88
2023-02-19T09:28:06.132Z,18.55
2023-02-19T09:30:36.937Z,19.58
2023-02-19T09:33:07.899Z,27.35
2023-02-19T09:35:41.514Z,31.17
2023-02-19T09:38:12.420Z,28.70
2023-02-19T09:40:45.822Z,25.60
2023-02-19T09:43:26.425Z,25.58
2023-02-19T09:46:06.066Z,25.77
2023-02-19T09:48:37.310Z,31.27
2023-02-19T09:51:10.478Z,25.75
2023-02-19T09:53:48.518Z,22.83
2023-02-19T09:56:21.474Z,24.35
2023-02-19T09:58:55.117Z,26.10
2023-02-19T10:01:28.280Z,25.33
2023-02-19T10:03:59.442Z,23.85
2023-02-19T10:06:31.279Z,26.10
2023-02-19T10:09:15.580Z,21.90
2023-02-19T10:11:47.200Z,27.95
2023-02-19T10:14:44.580Z,29.05
2023-02-19T10:17:32.443Z,29.33
2023-02-19T10:20:07.173Z,29.48
2023-02-19T10:22:38.956Z,30.58
2023-02-19T10:25:15.804Z,24.90
2023-02-19T10:27:47.118Z,33.33
2023-02-19T10:30:26.410Z,27.15
2023-02-19T10:33:18.029Z,33.63
2023-02-19T10:36:09.307Z,31.52
2023-02-19T10:38:48.426Z,35.70
2023-02-19T10:41:24.078Z,34.20
2023-02-19T10:44:18.736Z,31.90
2023-02-19T10:47:00.091Z,34.17
2023-02-19T10:49:44.952Z,35.80
2023-02-19T10:52:37.547Z,34.58
2023-02-19T10:55:31.480Z,34.80
2023-02-19T10:58:28.999Z,35.42
2023-02-19T11:01:23.086Z,36.80
2023-02-19T11:04:14.936Z,39.47
2023-02-19T11:06:46.876Z,36.17
2023-02-19T11:09:28.710Z,31.80
2023-02-19T11:12:00.435Z,30.15
2023-02-19T11:14:32.506Z,32.03
2023-02-19T11:17:06.489Z,30.60
2023-02-19T11:19:37.723Z,36.40
2023-02-19T11:22:31.363Z,32.17
2023-02-19T11:25:05.918Z,40.80
2023-02-19T11:27:37.021Z,37.70
2023-02-19T11:30:36.670Z,40.15
2023-02-19T11:33:25.668Z,52.20
2023-02-19T11:36:19.081Z,40.72
2023-02-19T11:38:50.692Z,36.83
2023-02-19T11:41:46.184Z,40.67
2023-02-19T11:44:37.963Z,44.50
2023-02-19T11:47:41.878Z,36.40
2023-02-19T11:50:46.337Z,42.22
2023-02-19T11:53:28.966Z,35.83
2023-02-19T11:56:22.809Z,41.28
2023-02-19T11:59:02.551Z,37.08
2023-02-19T12:02:00.409Z,42.95
2023-02-19T12:04:58.081Z,46.15
2023-02-19T14:39:49.498Z,33.17
2023-02-19T14:42:24.532Z,34.88
2023-02-19T14:45:00.858Z,29.38
2023-02-19T14:47:35.928Z,33.42
2023-02-19T14:50:18.895Z,31.65
2023-02-19T14:52:58.914Z,32.42
2023-02-19T14:55:34.861Z,31.10
2023-02-19T14:58:18.404Z,36.60
2023-02-19T15:00:49.150Z,27.92
2023-02-19T15:03:50.082Z,31.48
2023-02-19T15:06:21.429Z,31.02
2023-02-19T15:08:55.789Z,28.70
2023-02-19T15:11:28.545Z,31.75
2023-02-19T15:14:01.379Z,33.90
2023-02-19T15:16:36.235Z,25.48
2023-02-19T15:19:09.677Z,28.33
2023-02-19T15:21:42.986Z,24.33
2023-02-19T15:24:16.181Z,26.85
2023-02-19T15:26:51.920Z,27.75
2023-02-19T15:29:25.469Z,24.80
2023-02-19T15:32:01.769Z,33.42
2023-02-19T15:34:33.995Z,26.17
2023-02-19T15:37:08.782Z,27.67
2023-02-19T15:39:47.372Z,26.27
2023-02-19T15:42:34.374Z,24.70
2023-02-19T15:45:17.705Z,34.45
2023-02-19T15:48:00.306Z,26.67
2023-02-19T15:50:36.255Z,29.58
2023-02-19T15:53:23.462Z,23.80
2023-02-19T15:56:01.921Z,21.40
2023-02-19T15:58:45.067Z,26.08
2023-02-19T16:01:26.337Z,23.92
2023-02-19T16:03:57.860Z,27.52
2023-02-19T16:06:29.212Z,21.77
2023-02-19T16:09:06.622Z,24.05
2023-02-19T16:11:37.148Z,23.75
2023-02-19T16:14:33.666Z,24.17
2023-02-19T16:17:14.540Z,27.75
2023-02-19T16:19:45.133Z,20.55
2023-02-19T16:22:20.299Z,23.65
2023-02-19T16:24:53.240Z,27.67
2023-02-19T16:27:37.997Z,25.15
2023-02-19T16:30:13.044Z,28.00
2023-02-19T16:32:45.239Z,24.83
2023-02-19T16:35:53.132Z,25.13
2023-02-19T16:38:23.744Z,33.17
2023-02-19T16:41:05.760Z,27.08
2023-02-19T16:43:44.823Z,31.77
2023-02-19T16:46:15.903Z,27.98
2023-02-19T16:48:50.285Z,29.45
2023-02-19T16:51:27.614Z,30.38
2023-02-19T16:53:58.707Z,29.17
2023-02-19T16:56:32.044Z,27.63
2023-02-19T16:59:02.578Z,28.35
2023-02-19T17:01:33.359Z,29.10
2023-02-19T17:04:09.967Z,31.63
2023-02-19T17:06:41.007Z,27.30
2023-02-19T17:09:11.587Z,28.52
2023-02-19T17:11:43.272Z,24.77
2023-02-19T17:14:13.832Z,23.00
2023-02-19T17:16:44.300Z,24.50
2023-02-19T17:19:19.106Z,22.45
2023-02-19T17:21:49.494Z,27.40
2023-02-19T17:24:20.373Z,23.90
2023-02-19T17:26:51.206Z,26.85
2023-02-19T17:29:24.435Z,28.73
2023-02-19T17:31:54.862Z,30.05
2023-02-19T17:34:28.217Z,28.90
2023-02-19T17:36:59.138Z,34.92
2023-02-19T17:39:29.398Z,28.52
2023-02-19T17:41:59.767Z,37.38
2023-02-19T17:44:30.340Z,31.90
2023-02-19T17:47:00.902Z,31.85
2023-02-19T17:49:32.046Z,30.20
2023-02-19T17:52:02.344Z,29.30
2023-02-19T17:54:32.688Z,30.45
2023-02-19T17:57:03.080Z,30.80
2023-02-19T17:59:33.376Z,28.88
2023-02-19T18:02:04.365Z,32.60
2023-02-19T18:04:36.617Z,30.90
2023-02-19T18:07:07.237Z,31.65
2023-02-19T18:09:38.463Z,31.23
2023-02-19T18:12:09.182Z,31.83
2023-02-19T18:14:40.092Z,31.40
2023-02-19T18:17:11.247Z,34.33
2023-02-19T18:19:45.900Z,33.75
2023-02-19T18:22:16.472Z,30.20
2023-02-19T18:24:48.597Z,28.77
2023-02-19T18:27:21.193Z,29.95
2023-02-19T18:29:55.822Z,30.42
2023-02-19T18:32:26.882Z,30.40
2023-02-19T18:34:59.126Z,31.55
2023-02-19T18:37:34.804Z,31.48
2023-02-19T18:40:06.489Z,30.73
2023-02-19T18:42:36.832Z,30.48
2023-02-19T18:45:07.289Z,33.10
2023-02-19T18:47:37.880Z,33.83
2023-02-19T18:50:10.665Z,32.67
2023-02-19T18:52:42.545Z,36.63
2023-02-19T18:55:13.746Z,33.50
2023-02-19T18:57:45.060Z,34.05
2023-02-19T19:00:21.676Z,37.47
2023-02-19T19:02:52.209Z,38.05
2023-02-19T19:05:23.842Z,33.40
2023-02-19T19:07:56.224Z,33.53
2023-02-19T19:10:27.496Z,33.83
2023-02-19T19:12:58.612Z,34.90
2023-02-19T19:15:29.726Z,34.42
2023-02-19T19:18:00.945Z,30.92
2023-02-19T19:20:32.396Z,36.92
2023-02-19T19:23:03.523Z,36.33
2023-02-19T19:25:33.907Z,33.22
2023-02-19T19:28:04.758Z,35.95
2023-02-19T19:30:35.407Z,32.97
2023-02-19T19:33:06.251Z,34.45
2023-02-19T19:35:36.567Z,32.53
2023-02-19T19:38:07.111Z,36.30
2023-02-19T19:40:38.298Z,34.20
2023-02-19T19:43:08.470Z,40.55
2023-02-19T19:45:39.554Z,40.15
2023-02-19T19:48:10.700Z,38.45
2023-02-19T19:50:41.669Z,37.67
2023-02-19T19:53:14.811Z,39.40
2023-02-19T19:55:45.821Z,39.67
2023-02-19T19:58:23.686Z,40.90
2023-02-19T20:00:54.595Z,41.70
2023-02-19T20:03:25.202Z,44.42
2023-02-19T20:05:55.749Z,46.03
2023-02-19T20:08:26.444Z,40.47
2023-02-19T20:10:56.760Z,39.72
2023-02-19T20:13:30.226Z,39.72
2023-02-19T20:16:00.564Z,36.75
2023-02-19T20:18:31.542Z,36.72
2023-02-19T20:21:02.464Z,44.50
2023-02-19T20:23:34.266Z,38.53
2023-02-19T20:26:06.329Z,38.75
2023-02-19T20:28:37.249Z,39.80
2023-02-19T20:31:10.187Z,38.67
2023-02-19T20:33:41.031Z,39.65
2023-02-19T20:36:11.613Z,34.67
2023-02-19T20:38:44.542Z,42.30
2023-02-19T20:41:17.846Z,43.13
2023-02-19T20:43:48.549Z,38.35
2023-02-19T20:46:19.019Z,35.05
2023-02-19T20:48:51.608Z,34.60
2023-02-19T20:51:22.789Z,32.92
2023-02-19T20:53:53.816Z,31.38
2023-02-19T20:56:24.665Z,33.28
2023-02-19T20:58:55.299Z,35.72
2023-02-19T21:01:28.940Z,35.35
2023-02-19T21:03:59.484Z,37.55
2023-02-19T21:06:29.780Z,40.13
2023-02-19T21:09:00.825Z,37.50
2023-02-19T21:11:31.364Z,37.95
2023-02-19T21:14:01.977Z,38.75
2023-02-19T21:16:33.600Z,41.63
2023-02-19T21:19:04.138Z,38.83
2023-02-19T21:21:36.321Z,40.38
2023-02-19T21:24:07.440Z,42.22
2023-02-19T21:26:39.878Z,41.95
2023-02-19T21:29:14.861Z,44.67
2023-02-19T21:31:47.687Z,43.67
2023-02-19T21:34:20.900Z,42.75
2023-02-19T21:36:51.594Z,41.08
2023-02-19T21:39:23.999Z,37.90
2023-02-19T21:42:10.382Z,39.05
2023-02-19T21:44:43.248Z,45.67
2023-02-19T21:47:16.129Z,47.00
2023-02-19T21:49:47.018Z,38.47
2023-02-19T21:52:17.679Z,34.17
2023-02-19T21:54:48.514Z,34.55
2023-02-19T21:57:18.986Z,37.45
2023-02-19T21:59:49.376Z,37.75
2023-02-19T22:02:23.088Z,33.28
2023-02-19T22:04:55.216Z,39.50
2023-02-19T22:07:26.841Z,38.72
2023-02-19T22:09:59.486Z,40.15
2023-02-19T22:12:30.651Z,40.58
2023-02-19T22:15:01.353Z,33.20
2023-02-19T22:17:31.447Z,35.53
2023-02-19T22:20:01.979Z,35.85
2023-02-19T22:22:32.298Z,35.00
2023-02-19T22:25:02.803Z,40.25
2023-02-19T22:27:33.696Z,38.22
2023-02-19T22:30:06.364Z,36.97
2023-02-19T22:32:36.998Z,38.50
2023-02-19T22:35:07.759Z,38.58
2023-02-19T22:37:38.727Z,39.58
2023-02-19T22:40:10.664Z,30.90
2023-02-19T22:42:41.024Z,40.00
2023-02-19T22:45:13.123Z,34.17
2023-02-19T22:47:45.583Z,41.13
2023-02-19T22:50:20.949Z,34.25
2023-02-19T22:52:55.805Z,34.33
2023-02-19T22:55:26.249Z,31.65
2023-02-19T22:57:57.540Z,36.08
2023-02-19T23:00:27.980Z,32.15
2023-02-19T23:02:58.672Z,31.95
2023-02-19T23:05:29.929Z,28.92
2023-02-19T23:08:00.278Z,26.10
2023-02-19T23:10:34.028Z,25.00
2023-02-19T23:13:04.660Z,29.20
2023-02-19T23:15:35.008Z,24.48
2023-02-19T23:18:07.122Z,34.75
2023-02-19T23:20:37.428Z,27.08
2023-02-19T23:23:08.058Z,24.73
2023-02-19T23:25:39.270Z,27.95
2023-02-19T23:28:09.713Z,25.02
2023-02-19T23:30:40.228Z,22.48
2023-02-19T23:33:11.227Z,22.40
2023-02-19T23:35:41.567Z,24.08
2023-02-19T23:38:12.214Z,21.83
2023-02-19T23:40:42.837Z,27.90
2023-02-19T23:43:13.620Z,23.33
2023-02-19T23:45:43.929Z,24.08
2023-02-19T23:48:14.824Z,26.77
2023-02-19T23:50:46.477Z,28.02
2023-02-19T23:53:17.178Z,27.85
2023-02-19T23:55:48.286Z,26.67
2023-02-19T23:58:19.325Z,27.88
